Time;durP1;ratioP1;P1;durP2;ratioP2;P2;SDS_P1;SDS_P2;PMS_P1;PMS_P2;Temp;Humidity;BMP_temperature;BMP_pressure;BME280_temperature;BME280_humidity;BME280_pressure;Samples;Min_cycle;Max_cycle;Signal;HPM_P1;HPM_P2
2023/05/10 00:01:10;;;;;;;7.00;4.40;;;;;;;9.04;40.01;101386.70;111173;1231;61159;-91
2023/05/10 00:03:37;;;;;;;7.40;4.10;;;;;;;9.07;40.18;101388.20;111262;1231;61049;-90
2023/05/10 00:06:04;;;;;;;8.80;4.40;;;;;;;9.08;40.14;101386.21;111106;1231;73322;-90
2023/05/10 00:08:31;;;;;;;7.40;3.90;;;;;;;9.10;40.05;101384.92;111231;1231;73883;-91
2023/05/10 00:10:58;;;;;;;8.90;4.20;;;;;;;9.10;39.87;101387.66;111218;1231;72455;-90
2023/05/10 00:13:25;;;;;;;6.30;3.70;;;;;;;9.11;39.96;101385.04;110941;1239;61191;-90
2023/05/10 00:15:53;;;;;;;6.10;3.70;;;;;;;9.11;40.02;101384.42;111102;1231;60020;-89
2023/05/10 00:18:20;;;;;;;7.30;4.10;;;;;;;9.11;39.99;101382.25;111215;1232;73972;-91
2023/05/10 00:20:46;;;;;;;8.70;4.10;;;;;;;9.13;40.18;101386.29;111190;1231;73597;-91
2023/05/10 00:23:13;;;;;;;7.40;4.10;;;;;;;9.13;40.82;101385.49;111241;1232;70213;-90
2023/05/10 00:25:40;;;;;;;8.10;4.60;;;;;;;9.12;41.94;101386.17;111213;1231;61120;-90
2023/05/10 00:28:07;;;;;;;7.50;4.50;;;;;;;9.09;42.50;101384.73;111345;1231;61256;-91
2023/05/10 00:30:34;;;;;;;8.30;4.70;;;;;;;9.05;42.65;101383.36;111260;1231;75010;-91
2023/05/10 00:33:01;;;;;;;7.60;4.40;;;;;;;9.00;42.89;101383.76;111241;1231;71719;-91
2023/05/10 00:35:28;;;;;;;9.80;4.70;;;;;;;8.93;42.72;101387.41;111165;1231;73708;-92
2023/05/10 00:37:58;;;;;;;7.20;4.30;;;;;;;8.85;42.66;101386.70;111097;1231;61235;-91
2023/05/10 00:40:25;;;;;;;8.40;4.90;;;;;;;8.75;42.62;101386.26;111233;1231;61141;-92
2023/05/10 00:43:00;;;;;;;7.20;4.70;;;;;;;8.68;42.74;101386.21;111165;1231;74684;-90
2023/05/10 00:45:27;;;;;;;7.10;4.60;;;;;;;8.67;42.73;101384.37;111229;1231;71962;-91
2023/05/10 00:47:55;;;;;;;7.80;4.40;;;;;;;8.67;42.69;101384.58;111088;1231;70655;-90
2023/05/10 00:50:25;;;;;;;6.70;4.00;;;;;;;8.67;42.76;101382.08;111199;1231;61297;-91
2023/05/10 00:52:52;;;;;;;8.70;4.90;;;;;;;8.69;42.88;101382.71;111242;1236;61435;-91
2023/05/10 00:55:19;;;;;;;9.00;4.40;;;;;;;8.72;42.83;101383.27;111223;1236;73815;-91
2023/05/10 00:57:47;;;;;;;9.10;4.80;;;;;;;8.71;43.24;101383.39;111147;1231;73769;-90
2023/05/10 01:00:17;;;;;;;7.70;4.30;;;;;;;8.68;43.45;101380.43;111049;1232;71633;-92
2023/05/10 01:02:47;;;;;;;7.90;4.30;;;;;;;8.67;43.23;101376.96;111152;1231;61222;-90
2023/05/10 01:05:16;;;;;;;6.70;4.40;;;;;;;8.66;43.27;101384.02;111223;1231;60999;-92
2023/05/10 01:07:42;;;;;;;6.00;4.00;;;;;;;8.67;43.40;101384.72;111206;1231;74573;-93
2023/05/10 01:10:10;;;;;;;7.00;4.20;;;;;;;8.66;43.33;101382.59;111545;1231;73401;-93
2023/05/10 01:12:39;;;;;;;7.10;4.50;;;;;;;8.67;43.48;101382.55;111255;1231;70562;-92
2023/05/10 01:15:07;;;;;;;9.20;5.10;;;;;;;8.68;43.69;101382.64;111191;1231;61120;-93
2023/05/10 01:17:35;;;;;;;6.80;4.20;;;;;;;8.71;43.92;101383.76;111182;1232;61357;-93
2023/05/10 01:20:02;;;;;;;7.10;4.10;;;;;;;8.72;43.99;101380.35;111215;1231;72439;-92
2023/05/10 01:22:56;;;;;;;6.40;4.20;;;;;;;8.74;44.26;101381.35;111140;1231;72020;-92
2023/05/10 01:25:51;;;;;;;6.00;3.90;;;;;;;8.77;44.31;101381.80;111180;1236;72711;-91
2023/05/10 01:28:51;;;;;;;8.10;4.30;;;;;;;8.77;44.32;101380.42;111211;1231;61103;-90
2023/05/10 01:31:30;;;;;;;8.50;4.80;;;;;;;8.76;44.28;101381.41;111206;1231;61091;-89
2023/05/10 01:34:10;;;;;;;6.20;3.70;;;;;;;8.75;44.80;101378.80;111208;1231;75478;-90
2023/05/10 01:36:48;;;;;;;7.70;4.00;;;;;;;8.70;44.67;101379.55;111169;1231;73704;-89
2023/05/10 01:39:22;;;;;;;6.60;3.70;;;;;;;8.67;44.52;101378.02;111226;1231;71460;-90
2023/05/10 01:42:20;;;;;;;6.40;3.90;;;;;;;8.66;44.46;101381.29;111182;1231;61726;-89
2023/05/10 01:45:18;;;;;;;7.40;3.70;;;;;;;8.66;44.17;101378.91;111003;1231;61227;-89
2023/05/10 01:47:51;;;;;;;5.30;3.20;;;;;;;8.68;44.21;101379.12;110995;1231;75265;-90
2023/05/10 01:50:19;;;;;;;8.60;3.70;;;;;;;8.67;44.14;101378.11;111173;1231;72143;-91
2023/05/10 01:52:50;;;;;;;6.10;3.60;;;;;;;8.65;43.83;101378.39;110884;1232;72592;-89
2023/05/10 01:55:18;;;;;;;5.80;3.60;;;;;;;8.64;44.11;101379.00;111186;1237;61232;-89
2023/05/10 01:57:45;;;;;;;6.80;4.10;;;;;;;8.63;44.62;101377.96;110871;1231;61195;-89
2023/05/10 02:00:13;;;;;;;9.90;4.00;;;;;;;8.59;44.43;101376.41;111115;1231;72933;-90
2023/05/10 02:02:50;;;;;;;6.50;3.80;;;;;;;8.57;44.50;101374.77;111095;1231;72894;-89
2023/05/10 02:05:23;;;;;;;5.80;3.50;;;;;;;8.57;44.51;101373.52;110981;1231;72822;-91
2023/05/10 02:07:50;;;;;;;9.20;3.70;;;;;;;8.57;44.41;101376.20;111076;1232;61236;-91
2023/05/10 02:10:16;;;;;;;7.10;4.10;;;;;;;8.56;44.49;101373.83;111156;1231;61223;-91
2023/05/10 02:13:02;;;;;;;6.50;4.10;;;;;;;8.56;44.89;101375.84;111210;1231;74632;-92
2023/05/10 02:15:29;;;;;;;5.90;3.70;;;;;;;8.54;45.19;101377.07;110890;1231;71622;-90
2023/05/10 02:17:56;;;;;;;6.50;4.20;;;;;;;8.55;45.60;101376.34;111145;1232;71692;-88
2023/05/10 02:20:23;;;;;;;7.00;3.90;;;;;;;8.56;45.85;101380.63;110893;1231;61129;-88
2023/05/10 02:22:51;;;;;;;6.60;3.90;;;;;;;8.57;45.82;101376.94;110853;1231;61322;-89
2023/05/10 02:25:19;;;;;;;6.80;4.20;;;;;;;8.56;45.90;101382.46;110989;1231;75288;-89
2023/05/10 02:27:47;;;;;;;7.70;4.20;;;;;;;8.55;46.15;101379.36;111080;1231;70966;-91
2023/05/10 02:30:14;;;;;;;6.20;3.80;;;;;;;8.52;46.33;101382.71;111177;1236;72600;-90
2023/05/10 02:32:42;;;;;;;7.50;4.20;;;;;;;8.50;46.48;101378.04;110946;1231;61066;-92
2023/05/10 02:35:09;;;;;;;7.80;4.40;;;;;;;8.50;46.74;101377.10;110815;1231;61234;-90
2023/05/10 02:37:37;;;;;;;7.90;4.90;;;;;;;8.50;47.17;101377.23;111093;1232;74003;-89
2023/05/10 02:40:04;;;;;;;7.60;5.10;;;;;;;8.51;47.63;101376.08;111116;1231;72399;-89
2023/05/10 02:42:35;;;;;;;6.70;4.70;;;;;;;8.54;48.03;101374.92;111125;1231;72726;-90
2023/05/10 02:45:05;;;;;;;;;;;;;;;8.56;48.26;101377.71;110890;1231;61335;-88
2023/05/10 02:47:33;;;;;;;7.00;3.80;;;;;;;8.61;48.52;101378.85;111135;1231;61113;-89
2023/05/10 02:50:00;;;;;;;7.50;4.30;;;;;;;8.64;48.74;101374.91;111179;1236;74817;-89
2023/05/10 02:52:36;;;;;;;9.10;4.80;;;;;;;8.69;48.90;101379.32;111145;1231;72948;-89
2023/05/10 02:55:04;;;;;;;7.60;4.40;;;;;;;8.77;49.07;101378.28;110897;1231;73810;-90
2023/05/10 02:57:32;;;;;;;8.00;4.50;;;;;;;8.84;48.92;101379.70;111058;1231;61137;-89
2023/05/10 03:00:00;;;;;;;6.80;4.40;;;;;;;8.89;48.68;101375.69;111152;1231;60893;-90
2023/05/10 03:02:27;;;;;;;6.00;4.40;;;;;;;8.94;48.55;101382.64;110885;1231;72762;-89
2023/05/10 03:04:54;;;;;;;6.90;4.10;;;;;;;8.97;48.38;101389.11;111004;1231;71459;-89
2023/05/10 03:07:22;;;;;;;7.00;4.00;;;;;;;9.02;48.35;101397.63;111136;1231;73218;-89
2023/05/10 03:09:49;;;;;;;7.10;4.30;;;;;;;9.07;48.48;101395.95;111182;1232;61087;-89
2023/05/10 03:12:19;;;;;;;9.40;4.90;;;;;;;9.12;48.54;101391.49;110957;1231;61158;-89
2023/05/10 03:15:05;;;;;;;6.60;4.30;;;;;;;9.17;48.04;101385.91;111147;1232;74014;-90
2023/05/10 03:18:08;;;;;;;9.10;4.70;;;;;;;9.24;47.96;101385.71;111073;1231;73316;-90
2023/05/10 03:20:42;;;;;;;7.60;4.30;;;;;;;9.34;47.82;101384.50;111017;1231;71669;-90
2023/05/10 03:23:35;;;;;;;7.60;4.40;;;;;;;9.45;47.31;101385.19;111077;1237;61155;-90
2023/05/10 03:26:02;;;;;;;6.30;3.90;;;;;;;9.59;46.72;101384.93;111099;1231;59466;-90
2023/05/10 03:28:29;;;;;;;6.30;4.20;;;;;;;9.72;46.45;101387.42;110979;1231;74711;-90
2023/05/10 03:30:57;;;;;;;7.80;4.40;;;;;;;9.86;46.20;101388.17;110852;1231;73984;-91
2023/05/10 03:33:24;;;;;;;7.10;4.10;;;;;;;10.00;45.94;101389.36;110924;1231;71869;-91
2023/05/10 03:35:52;;;;;;;6.80;3.90;;;;;;;10.16;45.57;101384.80;111156;1231;61306;-89
2023/05/10 03:38:19;;;;;;;7.80;4.40;;;;;;;10.30;44.99;101385.52;111099;1231;61123;-90
2023/05/10 03:40:46;;;;;;;7.20;3.50;;;;;;;10.43;44.46;101384.08;111180;1231;73918;-91
2023/05/10 03:43:13;;;;;;;5.60;3.30;;;;;;;10.56;43.72;101382.69;111057;1231;72142;-88
2023/05/10 03:45:40;;;;;;;9.10;3.30;;;;;;;10.68;43.30;101386.13;111138;1232;72627;-88
2023/05/10 03:48:07;;;;;;;6.40;3.60;;;;;;;10.80;42.59;101387.91;111115;1231;61202;-88
2023/05/10 03:50:34;;;;;;;8.00;3.70;;;;;;;10.89;42.22;101389.31;111188;1232;61136;-90
2023/05/10 03:53:02;;;;;;;5.60;3.40;;;;;;;10.99;41.92;101387.04;111154;1231;74904;-90
2023/05/10 03:55:29;;;;;;;8.00;3.80;;;;;;;11.11;41.72;101391.14;111170;1231;72932;-89
2023/05/10 03:57:56;;;;;;;5.90;3.70;;;;;;;11.21;41.43;101389.10;110991;1233;71023;-90
2023/05/10 04:00:23;;;;;;;6.00;3.70;;;;;;;11.32;41.19;101386.99;111005;1237;61038;-89
2023/05/10 04:02:51;;;;;;;6.20;4.00;;;;;;;11.49;40.64;101390.64;111186;1231;61220;-90
2023/05/10 04:05:19;;;;;;;6.90;3.90;;;;;;;11.63;39.93;101389.80;111083;1231;74165;-88
2023/05/10 04:07:49;;;;;;;7.10;3.90;;;;;;;11.71;39.45;101387.47;111216;1231;72699;-91
2023/05/10 04:10:16;;;;;;;9.80;4.10;;;;;;;11.77;38.87;101386.05;111095;1234;70898;-90
2023/05/10 04:12:44;;;;;;;6.40;3.30;;;;;;;11.84;38.85;101388.85;111183;1231;61158;-91
2023/05/10 04:15:11;;;;;;;5.30;3.40;;;;;;;11.84;38.98;101390.40;111107;1232;61097;-91
2023/05/10 04:17:38;;;;;;;6.20;3.30;;;;;;;11.87;38.49;101387.63;111170;1231;74764;-91
2023/05/10 04:20:06;;;;;;;4.90;3.10;;;;;;;11.92;37.91;101386.52;111203;1231;71510;-92
2023/05/10 04:22:33;;;;;;;5.40;2.80;;;;;;;11.95;37.70;101390.05;111267;1236;70605;-92
2023/05/10 04:25:00;;;;;;;4.80;3.10;;;;;;;12.01;37.41;101388.06;111174;1237;61142;-92
2023/05/10 04:27:27;;;;;;;4.60;2.70;;;;;;;12.07;37.51;101387.81;111208;1231;60162;-92
2023/05/10 04:29:54;;;;;;;6.60;3.30;;;;;;;12.13;37.42;101386.83;111168;1231;72721;-90
2023/05/10 04:32:21;;;;;;;5.50;2.80;;;;;;;12.19;37.39;101386.22;111226;1235;71760;-90
2023/05/10 04:34:53;;;;;;;6.30;3.20;;;;;;;12.24;36.61;101385.86;111162;1231;71019;-93
2023/05/10 04:37:21;;;;;;;5.60;2.90;;;;;;;12.25;36.60;101388.33;111197;1231;61186;-92
2023/05/10 04:39:48;;;;;;;5.10;3.10;;;;;;;12.31;36.51;101389.32;111110;1231;61086;-92
2023/05/10 04:42:15;;;;;;;5.10;2.90;;;;;;;12.37;36.17;101389.23;111127;1231;75750;-91
2023/05/10 04:44:42;;;;;;;5.10;3.00;;;;;;;12.40;35.84;101386.86;111183;1231;73924;-91
2023/05/10 04:47:09;;;;;;;5.10;3.30;;;;;;;12.43;35.79;101390.37;111235;1231;73320;-91
2023/05/10 04:49:38;;;;;;;7.20;3.50;;;;;;;12.47;36.00;101385.23;111170;1231;60275;-91
2023/05/10 04:52:06;;;;;;;6.70;3.40;;;;;;;12.52;35.86;101385.08;111233;1231;61094;-92
2023/05/10 04:54:34;;;;;;;8.10;3.40;;;;;;;12.59;36.00;101381.73;111202;1231;73451;-90
2023/05/10 04:57:03;;;;;;;5.50;3.30;;;;;;;12.69;35.64;101379.81;111203;1231;72777;-91
2023/05/10 04:59:30;;;;;;;4.90;3.10;;;;;;;12.74;35.39;101381.69;111210;1236;72444;-92
2023/05/10 05:01:57;;;;;;;6.60;3.20;;;;;;;12.79;35.07;101384.39;111231;1236;61233;-91
2023/05/10 05:04:24;;;;;;;5.90;3.10;;;;;;;12.83;35.14;101385.94;111255;1231;61086;-92
2023/05/10 05:06:52;;;;;;;6.10;3.10;;;;;;;12.89;35.10;101386.31;111299;1232;73056;-91
2023/05/10 05:09:20;;;;;;;6.00;3.10;;;;;;;13.02;35.09;101387.36;111240;1231;72803;-92
2023/05/10 05:11:49;;;;;;;6.10;3.20;;;;;;;13.21;35.09;101389.47;111349;1236;71591;-94
2023/05/10 05:14:16;;;;;;;5.30;2.80;;;;;;;13.33;34.93;101384.41;111395;1231;168470;-94
2023/05/10 05:16:43;;;;;;;4.80;2.90;;;;;;;13.46;35.14;101384.20;111746;1231;61454;-93
2023/05/10 05:19:10;;;;;;;5.00;3.20;;;;;;;13.59;35.07;101384.84;111445;1231;73441;-92
2023/05/10 05:21:38;;;;;;;5.90;3.20;;;;;;;13.56;34.07;101381.53;111404;1231;73062;-94
2023/05/10 05:24:06;;;;;;;5.20;3.30;;;;;;;13.52;34.19;101381.24;110994;1232;70560;-94
2023/05/10 05:26:34;;;;;;;5.60;3.00;;;;;;;13.49;34.06;101382.57;111108;1231;61062;-94
2023/05/10 05:29:08;;;;;;;4.70;3.10;;;;;;;13.47;34.19;101383.61;111469;1237;60970;-94
2023/05/10 05:31:37;;;;;;;6.90;3.30;;;;;;;13.53;33.95;101381.74;111048;1233;74578;-93
2023/05/10 05:34:07;;;;;;;5.80;3.20;;;;;;;13.55;34.29;101380.79;111112;1240;73881;-92
2023/05/10 05:36:39;;;;;;;5.50;2.80;;;;;;;13.62;33.93;101381.81;111014;1231;71981;-93
2023/05/10 05:39:13;;;;;;;;;;;;;;;13.73;33.91;101382.91;111337;1231;61128;-93
2023/05/10 05:41:48;;;;;;;5.80;3.20;;;;;;;13.85;33.91;101383.58;111152;1232;61088;-92
2023/05/10 05:44:18;;;;;;;4.60;2.70;;;;;;;13.96;34.01;101385.05;111175;1231;75560;-94
2023/05/10 05:47:05;;;;;;;4.70;2.70;;;;;;;14.08;33.89;101387.21;111247;1231;73507;-94
2023/05/10 05:49:58;;;;;;;6.10;3.00;;;;;;;14.16;33.18;101381.29;111405;1232;73854;-94
2023/05/10 05:52:39;;;;;;;8.20;3.40;;;;;;;14.25;33.48;101379.73;111138;1232;61028;-94
2023/05/10 05:55:07;;;;;;;4.80;3.20;;;;;;;14.38;33.35;101381.91;111341;1231;61069;-93
2023/05/10 05:57:38;;;;;;;5.10;3.00;;;;;;;14.49;33.17;101382.76;110975;1238;75684;-93
2023/05/10 06:00:07;;;;;;;4.80;2.80;;;;;;;14.56;32.88;101378.73;110900;1237;71314;-94
2023/05/10 06:02:44;;;;;;;5.30;3.00;;;;;;;14.62;32.64;101379.33;111061;1239;72609;-92
2023/05/10 06:05:12;;;;;;;6.60;3.20;;;;;;;14.68;32.34;101378.60;110954;1232;61682;-93
2023/05/10 06:07:42;;;;;;;5.60;3.20;;;;;;;14.77;32.31;101379.80;111082;1231;61281;-93
2023/05/10 06:10:10;;;;;;;6.50;3.30;;;;;;;14.87;32.92;101376.23;111058;1231;75737;-94
2023/05/10 06:12:53;;;;;;;5.80;2.90;;;;;;;15.01;32.52;101374.38;111129;1231;72488;-93
2023/05/10 06:15:22;;;;;;;5.50;3.00;;;;;;;15.14;32.41;101373.16;111050;1232;72423;-92
2023/05/10 06:17:51;;;;;;;6.30;3.10;;;;;;;15.28;31.71;101374.45;111062;1231;61320;-94
2023/05/10 06:20:22;;;;;;;5.40;2.90;;;;;;;15.39;31.61;101375.98;110936;1232;61024;-92
2023/05/10 06:22:50;;;;;;;5.60;3.10;;;;;;;15.50;31.66;101370.86;111182;1232;75658;-93
2023/05/10 06:25:18;;;;;;;7.10;3.10;;;;;;;15.63;31.64;101368.82;111330;1232;73183;-93
2023/05/10 06:28:04;;;;;;;5.90;3.00;;;;;;;15.80;31.50;101366.46;111411;1232;72662;-95
2023/05/10 06:31:54;;;;;;;4.50;2.60;;;;;;;15.95;30.54;101364.74;111756;1231;60431;-95
2023/05/10 06:35:58;;;;;;;5.70;2.80;;;;;;;16.19;30.22;101357.66;111905;1231;60999;-92
2023/05/10 06:39:19;;;;;;;5.80;3.10;;;;;;;16.36;29.75;101358.80;111515;1232;73686;-94
2023/05/10 06:42:25;;;;;;;4.80;2.70;;;;;;;16.41;29.90;101357.11;111762;1232;72632;-93
2023/05/10 06:45:14;;;;;;;5.00;3.10;;;;;;;16.44;28.93;101357.24;111073;1232;73827;-92
2023/05/10 06:47:49;;;;;;;4.90;2.70;;;;;;;16.43;29.01;101361.41;111379;1232;61511;-93
2023/05/10 06:50:27;;;;;;;6.90;2.90;;;;;;;16.43;28.98;101361.15;111180;1232;60566;-90
2023/05/10 06:54:17;;;;;;;4.50;2.80;;;;;;;16.44;29.47;101363.46;111929;1232;74685;-86
2023/05/10 06:56:49;;;;;;;5.10;3.30;;;;;;;16.49;29.76;101364.20;111435;1238;72768;-92
2023/05/10 06:59:19;;;;;;;6.20;2.90;;;;;;;16.42;29.22;101368.58;111200;1235;72548;-92
2023/05/10 07:01:46;;;;;;;6.60;3.10;;;;;;;16.27;29.10;101370.80;110921;1231;61089;-80
2023/05/10 07:04:13;;;;;;;5.10;2.90;;;;;;;16.17;29.43;101371.86;111234;1232;61369;-90
2023/05/10 07:06:41;;;;;;;4.20;2.60;;;;;;;16.19;29.30;101365.91;111173;1232;74513;-88
2023/05/10 07:09:08;;;;;;;6.10;2.60;;;;;;;16.30;29.31;101364.65;111130;1232;72405;-88
2023/05/10 07:11:37;;;;;;;4.40;2.50;;;;;;;16.46;28.86;101363.34;111058;1232;72812;-92
2023/05/10 07:14:04;;;;;;;5.10;2.60;;;;;;;16.57;28.90;101361.56;111100;1231;61085;-92
2023/05/10 07:16:32;;;;;;;5.80;2.60;;;;;;;16.74;28.76;101360.56;111095;1232;61082;-93
2023/05/10 07:18:59;;;;;;;5.70;2.50;;;;;;;16.86;27.80;101355.98;111217;1236;74827;-90
2023/05/10 07:21:28;;;;;;;4.90;2.50;;;;;;;16.94;27.73;101359.71;111142;1233;71447;-88
2023/05/10 07:23:55;;;;;;;6.50;2.40;;;;;;;17.01;27.81;101359.77;110892;1232;71509;-87
2023/05/10 07:26:22;;;;;;;6.30;2.70;;;;;;;17.14;28.20;101360.38;111082;1232;61341;-88
2023/05/10 07:28:49;;;;;;;3.90;2.30;;;;;;;17.31;28.52;101359.60;111104;1232;61452;-86
2023/05/10 07:31:16;;;;;;;5.40;2.40;;;;;;;17.49;28.08;101357.02;111105;1237;74017;-84
2023/05/10 07:33:43;;;;;;;4.00;2.20;;;;;;;17.59;27.30;101356.23;111106;1232;72666;-89
2023/05/10 07:36:13;;;;;;;6.40;2.20;;;;;;;17.69;26.91;101353.11;111085;1234;71947;-90
2023/05/10 07:38:40;;;;;;;4.80;2.70;;;;;;;17.73;26.29;101356.63;111144;1232;61198;-89
2023/05/10 07:41:07;;;;;;;3.70;2.20;;;;;;;17.71;26.40;101353.20;111194;1232;61108;-91
2023/05/10 07:43:34;;;;;;;3.40;1.90;;;;;;;17.76;26.67;101354.09;111166;1232;74579;-85
2023/05/10 07:46:01;;;;;;;4.50;2.10;;;;;;;17.92;26.45;101344.64;111124;1232;72923;-86
2023/05/10 07:48:28;;;;;;;5.00;2.00;;;;;;;18.03;25.94;101350.45;111022;1233;73575;-86
2023/05/10 07:50:55;;;;;;;3.80;2.00;;;;;;;18.11;25.39;101340.70;111059;1235;61078;-86
2023/05/10 07:53:23;;;;;;;4.40;2.20;;;;;;;18.17;25.41;101342.79;111116;1232;61430;-84
2023/05/10 07:55:51;;;;;;;6.40;2.30;;;;;;;18.26;24.80;101340.23;111120;1232;75309;-88
2023/05/10 07:58:18;;;;;;;4.30;2.00;;;;;;;18.30;24.34;101342.86;111181;1232;72249;-90
2023/05/10 08:00:45;;;;;;;6.00;2.50;;;;;;;18.33;24.39;101341.24;110794;1232;73463;-83
2023/05/10 08:03:12;;;;;;;4.50;2.00;;;;;;;18.40;24.13;101339.70;111113;1232;61136;-85
2023/05/10 08:05:40;;;;;;;4.30;2.00;;;;;;;18.51;24.21;101335.37;111061;1232;61239;-86
2023/05/10 08:08:07;;;;;;;3.20;1.70;;;;;;;18.73;24.62;101330.60;111181;1232;74739;-85
2023/05/10 08:10:35;;;;;;;4.50;1.90;;;;;;;18.98;24.92;101328.90;111105;1237;72883;-84
2023/05/10 08:13:02;;;;;;;3.40;2.10;;;;;;;19.17;23.64;101334.86;111112;1237;72741;-88
2023/05/10 08:15:29;;;;;;;4.00;2.00;;;;;;;19.12;23.19;101337.17;111121;1231;61140;-88
2023/05/10 08:17:56;;;;;;;3.90;1.80;;;;;;;18.97;23.04;101332.80;111179;1231;61079;-85
2023/05/10 08:20:23;;;;;;;4.20;1.90;;;;;;;18.87;23.81;101341.17;111040;1232;72909;-87
2023/05/10 08:22:49;;;;;;;5.00;1.80;;;;;;;18.95;23.66;101339.66;111097;1232;72727;-86
2023/05/10 08:25:18;;;;;;;3.00;1.80;;;;;;;19.10;23.11;101335.33;111053;1232;73518;-86
2023/05/10 08:27:46;;;;;;;3.10;1.90;;;;;;;19.17;22.99;101328.36;111117;1232;61423;-89
2023/05/10 08:30:13;;;;;;;3.00;1.50;;;;;;;19.32;22.83;101327.70;110892;1232;61579;-88
2023/05/10 08:32:41;;;;;;;3.40;1.80;;;;;;;19.49;23.05;101323.50;110888;1232;73832;-87
2023/05/10 08:35:08;;;;;;;4.00;2.10;;;;;;;19.58;22.68;101324.70;111149;1232;73426;-87
2023/05/10 08:37:35;;;;;;;5.60;1.90;;;;;;;19.46;23.04;101323.65;111108;1236;73846;-92
2023/05/10 08:40:03;;;;;;;5.20;2.20;;;;;;;19.41;22.81;101321.03;111152;1232;60381;-89
2023/05/10 08:42:31;;;;;;;4.20;2.00;;;;;;;19.19;23.01;101333.20;111166;1232;61066;-90
2023/05/10 08:44:58;;;;;;;4.10;2.10;;;;;;;18.90;23.25;101333.93;111150;1232;73852;-91
2023/05/10 08:47:28;;;;;;;4.40;1.60;;;;;;;18.64;23.86;101335.42;111073;1232;70391;-88
2023/05/10 08:49:55;;;;;;;4.80;2.00;;;;;;;18.48;23.70;101336.29;111127;1236;71367;-87
2023/05/10 08:52:22;;;;;;;4.50;2.80;;;;;;;18.40;23.72;101335.81;110987;1234;61281;-87
2023/05/10 08:54:49;;;;;;;4.60;2.10;;;;;;;18.29;24.25;101337.17;111225;1232;61407;-92
2023/05/10 08:57:16;;;;;;;5.50;2.20;;;;;;;18.16;24.98;101338.33;111066;1237;73744;-92
2023/05/10 08:59:43;;;;;;;5.60;2.30;;;;;;;17.99;25.23;101336.61;111140;1232;71598;-92
2023/05/10 09:02:11;;;;;;;5.30;2.10;;;;;;;17.85;25.67;101338.17;111099;1232;73697;-90
2023/05/10 09:04:39;;;;;;;4.40;2.10;;;;;;;17.71;25.97;101335.64;111147;1232;61265;-91
2023/05/10 09:07:06;;;;;;;5.30;2.40;;;;;;;17.58;26.22;101339.93;111165;1232;61149;-90
2023/05/10 09:09:35;;;;;;;6.00;2.30;;;;;;;17.48;26.40;101334.17;111150;1232;74419;-89
2023/05/10 09:12:01;;;;;;;3.60;2.20;;;;;;;17.41;26.56;101340.66;110914;1232;71364;-88
2023/05/10 09:14:28;;;;;;;4.40;2.20;;;;;;;17.41;26.77;101335.33;111039;1232;73991;-85
2023/05/10 09:16:55;;;;;;;5.40;2.10;;;;;;;17.41;26.53;101337.66;111053;1232;60297;-87
2023/05/10 09:19:22;;;;;;;3.20;2.00;;;;;;;17.43;25.60;101329.96;110930;1232;61288;-87
2023/05/10 09:21:49;;;;;;;4.30;2.20;;;;;;;17.47;25.70;101331.01;111180;1232;72529;-87
2023/05/10 09:40:34;;;;;;;5.30;2.00;;;;;;;17.63;25.54;101321.62;105778;1286;613465;-87
2023/05/10 09:43:08;;;;;;;4.30;1.80;;;;;;;18.44;24.20;101316.21;107080;1266;148502;-88
2023/05/10 09:45:35;;;;;;;4.20;1.70;;;;;;;18.34;23.89;101318.45;107413;1267;62543;-87
2023/05/10 09:48:05;;;;;;;3.00;2.00;;;;;;;18.26;24.17;101320.98;107423;1264;71768;-91
2023/05/10 09:50:33;;;;;;;3.80;1.90;;;;;;;18.24;23.68;101316.15;107473;1264;73291;-86
2023/05/10 09:53:03;;;;;;;4.50;1.80;;;;;;;18.20;23.82;101313.33;107488;1264;75480;-89
2023/05/10 09:55:41;;;;;;;3.00;1.80;;;;;;;18.28;24.29;101309.24;107477;1263;61459;-85
2023/05/10 09:58:11;;;;;;;4.10;1.90;;;;;;;18.42;24.21;101312.02;107446;1264;62632;-90
2023/05/10 10:00:47;;;;;;;5.80;1.50;;;;;;;18.56;24.34;101310.05;107491;1264;74607;-88
2023/05/10 10:03:18;;;;;;;2.50;1.70;;;;;;;18.67;23.89;101308.86;107306;1267;71348;-87
2023/05/10 10:05:47;;;;;;;3.40;2.00;;;;;;;18.74;22.88;101306.79;107347;1267;74947;-94
2023/05/10 10:08:14;;;;;;;4.20;2.20;;;;;;;18.73;22.71;101299.33;107326;1271;59975;-90
2023/05/10 10:10:41;;;;;;;5.40;2.10;;;;;;;18.72;22.57;101299.34;107424;1271;59499;-83
2023/05/10 10:13:08;;;;;;;4.90;1.80;;;;;;;18.74;22.48;101300.46;107324;1269;74152;-88
2023/05/10 10:15:35;;;;;;;3.20;1.60;;;;;;;18.75;22.38;101298.45;107379;1267;73500;-83
2023/05/10 10:18:03;;;;;;;5.20;1.90;;;;;;;18.77;23.13;101300.89;107366;1267;73981;-85
2023/05/10 10:20:31;;;;;;;3.60;1.80;;;;;;;18.77;23.75;101301.40;107376;1268;62400;-86
2023/05/10 10:22:58;;;;;;;4.70;1.70;;;;;;;18.80;23.18;101303.55;107329;1266;62322;-83
2023/05/10 10:25:25;;;;;;;4.00;2.20;;;;;;;18.78;22.66;101306.58;107408;1266;72403;-89
2023/05/10 10:27:58;;;;;;;3.40;1.90;;;;;;;18.74;22.12;101299.15;107338;1267;72892;-90
2023/05/10 10:30:48;;;;;;;3.00;1.60;;;;;;;18.79;22.42;101301.14;107340;1267;72677;-88
2023/05/10 10:33:55;;;;;;;3.20;1.80;;;;;;;18.77;23.02;101296.23;107344;1271;61814;-90
2023/05/10 10:36:22;;;;;;;7.40;2.00;;;;;;;18.78;22.99;101294.83;107380;1269;60946;-93
2023/05/10 10:39:02;;;;;;;5.10;2.20;;;;;;;18.83;23.11;101295.23;107444;1269;74980;-91
2023/05/10 10:41:31;;;;;;;4.00;2.30;;;;;;;18.94;23.43;101293.11;107427;1268;74236;-92
2023/05/10 10:44:25;;;;;;;2.90;1.60;;;;;;;19.11;23.75;101293.98;107305;1268;74904;-90
2023/05/10 10:47:02;;;;;;;4.40;2.10;;;;;;;19.20;23.04;101287.81;107523;1264;62410;-90
2023/05/10 10:49:57;;;;;;;4.00;2.10;;;;;;;19.25;22.85;101284.80;107590;1263;61577;-91
2023/05/10 10:52:30;;;;;;;9.00;2.30;;;;;;;19.32;23.20;101284.56;107480;1264;73080;-93
2023/05/10 11:09:49;;;;;;;3.40;2.00;;;;;;;19.24;21.11;101267.57;105653;1286;612900;-88
2023/05/10 11:12:18;;;;;;;4.80;1.90;;;;;;;19.77;20.87;101264.19;107260;1267;124514;-83
2023/05/10 11:14:50;;;;;;;3.00;1.50;;;;;;;19.69;20.77;101266.62;107260;1267;61192;-89
2023/05/10 11:17:24;;;;;;;2.80;1.80;;;;;;;19.59;20.84;101265.45;107346;1267;74064;-89
2023/05/10 11:20:24;;;;;;;3.30;1.60;;;;;;;19.56;20.98;101261.02;107371;1267;73170;-89
2023/05/10 11:22:52;;;;;;;4.40;1.60;;;;;;;19.63;21.13;101261.98;107290;1267;72624;-90
2023/05/10 11:25:20;;;;;;;2.70;1.60;;;;;;;19.75;20.58;101262.77;107392;1267;62411;-86
2023/05/10 11:27:47;;;;;;;3.40;1.90;;;;;;;19.77;20.52;101260.92;107319;1273;60484;-88
2023/05/10 11:30:14;;;;;;;4.90;1.60;;;;;;;19.85;20.79;101258.38;107345;1267;72914;-88
2023/05/10 11:32:42;;;;;;;3.90;1.70;;;;;;;19.97;20.84;101258.75;107338;1267;75034;-88
2023/05/10 11:35:12;;;;;;;5.50;2.60;;;;;;;20.04;20.72;101256.48;107344;1270;72119;-88
2023/05/10 11:37:43;;;;;;;3.10;1.90;;;;;;;20.07;19.90;101257.56;107908;1256;61586;-90
2023/05/10 11:40:11;;;;;;;4.00;1.70;;;;;;;20.08;19.81;101253.81;107971;1260;61778;-87
2023/05/10 11:42:38;;;;;;;3.50;1.70;;;;;;;20.05;19.96;101254.30;108027;1256;74512;-90
2023/05/10 11:45:07;;;;;;;2.50;1.70;;;;;;;20.05;19.65;101256.90;108084;1256;71420;-90
2023/05/10 11:47:35;;;;;;;2.30;1.40;;;;;;;20.05;19.95;101257.00;107924;1256;71573;-88
2023/05/10 11:50:04;;;;;;;4.50;1.80;;;;;;;20.18;20.25;101257.29;107954;1256;60731;-90
2023/05/10 11:52:37;;;;;;;4.00;1.70;;;;;;;20.32;19.79;101262.17;107737;1256;60400;-90
2023/05/10 11:55:04;;;;;;;3.00;1.80;;;;;;;20.43;19.14;101255.75;107997;1256;71849;-88
2023/05/10 11:57:32;;;;;;;3.50;1.70;;;;;;;20.37;18.86;101259.45;107950;1256;73224;-87
2023/05/10 11:59:59;;;;;;;4.50;1.80;;;;;;;20.27;19.24;101259.13;107925;1257;71346;-88
2023/05/10 12:02:26;;;;;;;4.00;1.60;;;;;;;20.21;19.80;101260.90;107924;1256;61157;-89
2023/05/10 12:04:55;;;;;;;7.00;1.90;;;;;;;19.98;20.75;101257.59;107846;1256;59933;-88
2023/05/10 12:07:23;;;;;;;26.70;3.30;;;;;;;19.68;21.40;101267.48;108094;1255;73531;-89
2023/05/10 12:10:18;;;;;;;5.40;2.10;;;;;;;19.41;21.72;101271.63;107952;1257;73721;-89